createdAt,value
2019-05-29T00:04:49.149Z,93.80
2019-05-29T00:09:54.738Z,93.90
2019-05-29T00:15:00.327Z,93.90
2019-05-29T00:20:06.434Z,94.30
2019-05-29T00:25:12.493Z,93.80
2019-05-29T00:30:18.198Z,93.80
2019-05-29T00:35:23.792Z,94.00
2019-05-29T00:40:29.349Z,94.10
2019-05-29T00:45:34.942Z,94.00
2019-05-29T00:50:40.521Z,93.90
2019-05-29T00:55:46.191Z,94.10
2019-05-29T01:00:51.777Z,94.10
2019-05-29T01:05:57.328Z,94.00
2019-05-29T01:11:03.008Z,94.00
2019-05-29T01:16:08.608Z,94.40
2019-05-29T01:21:14.352Z,94.20
2019-05-29T01:26:20.894Z,94.30
2019-05-29T01:31:26.486Z,94.80
2019-05-29T01:36:32.057Z,94.80
2019-05-29T01:41:37.735Z,94.90
2019-05-29T01:46:43.386Z,94.80
2019-05-29T01:51:48.966Z,95.00
2019-05-29T01:56:54.631Z,95.20
2019-05-29T02:02:00.250Z,95.20
2019-05-29T02:07:06.083Z,95.00
2019-05-29T02:12:11.639Z,95.00
2019-05-29T02:17:17.801Z,94.90
2019-05-29T02:22:23.510Z,95.00
2019-05-29T02:27:29.098Z,95.00
2019-05-29T02:32:34.604Z,94.90
2019-05-29T02:37:40.131Z,94.70
2019-05-29T02:42:45.830Z,94.70
2019-05-29T02:47:52.641Z,95.70
2019-05-29T02:52:58.236Z,95.60
2019-05-29T02:58:03.863Z,95.80
2019-05-29T03:03:09.530Z,96.50
2019-05-29T03:08:15.066Z,96.30
2019-05-29T03:13:20.823Z,95.80
2019-05-29T03:18:27.926Z,95.60
2019-05-29T03:23:35.955Z,95.60
2019-05-29T03:28:41.115Z,95.70
2019-05-29T03:33:49.807Z,95.70
2019-05-29T03:38:54.191Z,95.80
2019-05-29T03:44:00.361Z,95.80
2019-05-29T03:49:06.174Z,95.70
2019-05-29T03:54:11.752Z,95.70
2019-05-29T03:59:17.604Z,95.70
2019-05-29T04:04:23.379Z,95.80
2019-05-29T04:09:29.169Z,95.80
2019-05-29T04:14:35.696Z,96.00
2019-05-29T04:19:43.104Z,96.10
2019-05-29T04:24:51.055Z,96.20
2019-05-29T04:30:00.335Z,96.10
2019-05-29T04:35:06.259Z,96.10
2019-05-29T04:40:12.390Z,96.10
2019-05-29T04:45:18.033Z,96.10
2019-05-29T04:50:24.983Z,96.30
2019-05-29T04:55:30.767Z,96.40
2019-05-29T05:00:37.297Z,96.80
2019-05-29T05:05:43.014Z,96.90
2019-05-29T05:10:48.574Z,96.80
2019-05-29T05:15:56.179Z,96.90
2019-05-29T05:21:01.834Z,96.70
2019-05-29T05:26:07.382Z,96.50
2019-05-29T05:31:12.947Z,96.80
2019-05-29T05:36:18.646Z,97.00
2019-05-29T05:41:24.175Z,97.70
2019-05-29T05:46:30.934Z,98.70
2019-05-29T05:51:40.433Z,98.60
2019-05-29T05:56:43.872Z,98.70
2019-05-29T06:01:49.564Z,99.50
2019-05-29T06:06:55.048Z,99.20
2019-05-29T06:12:00.578Z,99.30
2019-05-29T06:17:06.233Z,99.00
2019-05-29T06:22:11.933Z,99.20
2019-05-29T06:27:17.675Z,99.20
2019-05-29T06:32:23.294Z,99.10
2019-05-29T06:37:28.854Z,98.90
2019-05-29T06:42:35.654Z,98.80
2019-05-29T06:47:42.777Z,98.50
2019-05-29T06:52:48.403Z,98.40
2019-05-29T06:57:54.168Z,98.40
2019-05-29T07:02:59.716Z,98.20
2019-05-29T07:08:18.509Z,97.80
2019-05-29T07:13:12.866Z,97.50
2019-05-29T07:18:19.575Z,97.40
2019-05-29T07:23:25.288Z,97.00
2019-05-29T07:28:31.062Z,96.40
2019-05-29T07:33:37.035Z,95.90
2019-05-29T07:38:48.841Z,95.30
2019-05-29T07:43:49.898Z,94.40
2019-05-29T07:48:55.536Z,94.20
2019-05-29T07:54:01.248Z,93.80
2019-05-29T07:59:06.921Z,93.10
2019-05-29T08:04:13.094Z,92.40
2019-05-29T08:09:18.775Z,92.60
2019-05-29T08:14:24.539Z,92.30
2019-05-29T08:19:31.588Z,91.30
2019-05-29T08:24:37.303Z,91.10
2019-05-29T08:29:42.904Z,91.20
2019-05-29T08:34:49.091Z,90.90
2019-05-29T08:39:54.835Z,90.80
2019-05-29T08:45:00.610Z,90.30
2019-05-29T08:50:18.175Z,90.00
2019-05-29T08:55:15.601Z,89.60
2019-05-29T09:00:21.486Z,88.40
2019-05-29T09:05:27.234Z,87.50
2019-05-29T09:10:32.850Z,87.00
2019-05-29T09:15:38.532Z,86.30
2019-05-29T09:21:02.037Z,85.90
2019-05-29T09:25:51.576Z,85.10
2019-05-29T09:30:57.357Z,83.90
2019-05-29T09:36:02.929Z,83.80
2019-05-29T09:41:08.623Z,83.50
2019-05-29T09:46:15.200Z,82.40
2019-05-29T09:51:22.045Z,81.60
2019-05-29T09:56:28.154Z,80.00
2019-05-29T10:01:33.743Z,79.30
2019-05-29T10:06:39.425Z,78.00
2019-05-29T10:11:45.101Z,78.90
2019-05-29T10:16:50.734Z,78.60
2019-05-29T10:21:57.866Z,78.20
2019-05-29T10:27:04.961Z,78.10
2019-05-29T10:32:10.942Z,77.00
2019-05-29T10:37:18.286Z,76.00
2019-05-29T10:42:23.765Z,75.60
2019-05-29T10:47:29.459Z,75.70
2019-05-29T10:52:35.139Z,75.20
2019-05-29T10:57:42.056Z,75.20
2019-05-29T11:02:48.131Z,75.30
2019-05-29T11:07:55.984Z,74.70
2019-05-29T11:13:01.786Z,73.10
2019-05-29T11:18:07.485Z,71.50
2019-05-29T11:23:13.061Z,70.10
2019-05-29T11:28:18.674Z,70.40
2019-05-29T11:33:24.435Z,70.70
2019-05-29T11:38:30.090Z,69.40
2019-05-29T11:43:35.724Z,69.10
2019-05-29T11:48:41.390Z,68.80
2019-05-29T11:53:47.017Z,69.30
2019-05-29T11:58:54.793Z,71.50
2019-05-29T12:04:24.276Z,73.10
2019-05-29T12:09:09.647Z,72.10
2019-05-29T12:14:15.358Z,72.40
2019-05-29T12:19:20.927Z,73.10
2019-05-29T12:24:26.604Z,74.20
2019-05-29T12:29:32.208Z,77.90
2019-05-29T12:34:45.143Z,80.40
2019-05-29T12:39:45.240Z,82.90
2019-05-29T12:44:50.837Z,85.30
2019-05-29T12:49:57.540Z,86.40
2019-05-29T12:55:04.250Z,89.60
2019-05-29T13:00:10.864Z,91.20
2019-05-29T13:05:20.560Z,91.50
2019-05-29T13:10:30.778Z,92.20
2019-05-29T13:15:32.504Z,93.10
2019-05-29T13:20:38.328Z,94.60
2019-05-29T13:25:43.942Z,94.80
2019-05-29T13:30:49.564Z,95.50
2019-05-29T13:35:56.282Z,95.70
2019-05-29T13:41:02.556Z,96.20
2019-05-29T13:46:08.382Z,96.90
2019-05-29T13:51:13.998Z,96.80
2019-05-29T13:56:23.882Z,97.80
2019-05-29T14:01:27.029Z,98.60
2019-05-29T14:06:32.741Z,99.20
2019-05-29T14:11:38.515Z,99.90
2019-05-29T14:16:44.335Z,99.90
2019-05-29T14:21:49.854Z,99.90
2019-05-29T14:26:55.596Z,99.90
2019-05-29T14:32:01.139Z,99.90
2019-05-29T14:37:07.962Z,99.90
2019-05-29T14:42:13.802Z,99.90
2019-05-29T14:47:19.503Z,99.90
2019-05-29T14:52:25.182Z,99.90
2019-05-29T14:57:30.768Z,99.90
2019-05-29T15:02:36.429Z,99.90
2019-05-29T15:07:42.117Z,99.90
2019-05-29T15:12:47.746Z,99.90
2019-05-29T15:17:53.325Z,99.90
2019-05-29T15:22:59.199Z,99.90
2019-05-29T15:28:06.039Z,99.90
2019-05-29T15:33:12.686Z,99.90
2019-05-29T15:38:18.349Z,99.90
2019-05-29T15:43:23.927Z,99.90
2019-05-29T15:48:29.612Z,99.90
2019-05-29T15:53:35.371Z,99.90
2019-05-29T15:58:41.066Z,99.90
2019-05-29T16:03:46.734Z,99.90
2019-05-29T16:08:52.293Z,99.90
2019-05-29T16:13:57.805Z,99.90
2019-05-29T16:19:03.370Z,99.90
2019-05-29T16:24:09.054Z,99.90
2019-05-29T16:29:17.351Z,99.90
2019-05-29T16:34:22.992Z,99.90
2019-05-29T16:39:28.708Z,99.90
2019-05-29T16:44:34.354Z,99.90
2019-05-29T16:49:40.041Z,99.90
2019-05-29T16:54:45.718Z,99.90
2019-05-29T16:59:51.332Z,99.90
2019-05-29T17:04:58.366Z,99.90
2019-05-29T17:10:04.614Z,99.90
2019-05-29T17:15:12.222Z,99.90
2019-05-29T17:20:22.835Z,99.90
2019-05-29T17:25:28.564Z,99.90
2019-05-29T17:30:34.455Z,99.90
2019-05-29T17:35:40.100Z,99.90
2019-05-29T17:40:45.870Z,99.90
2019-05-29T17:45:51.523Z,99.90
2019-05-29T17:50:57.116Z,99.90
2019-05-29T17:56:02.780Z,99.90
2019-05-29T18:01:08.531Z,99.90
2019-05-29T18:06:14.147Z,99.90
2019-05-29T18:11:21.043Z,99.90
2019-05-29T18:16:27.744Z,99.90
2019-05-29T18:21:33.531Z,99.90
2019-05-29T18:26:46.762Z,99.90
2019-05-29T18:31:46.506Z,99.90
2019-05-29T18:36:52.209Z,99.90
2019-05-29T18:41:57.823Z,99.90
2019-05-29T18:47:03.486Z,99.90
2019-05-29T18:52:09.149Z,99.90
2019-05-29T18:57:16.113Z,99.90
2019-05-29T19:02:23.330Z,99.90
2019-05-29T19:07:29.755Z,99.90
2019-05-29T19:12:35.467Z,99.90
2019-05-29T19:17:41.327Z,99.90
2019-05-29T19:22:47.112Z,99.90
2019-05-29T19:27:53.107Z,99.90
2019-05-29T19:32:58.842Z,99.90
2019-05-29T19:38:04.630Z,99.90
2019-05-29T19:43:10.276Z,99.90
2019-05-29T19:48:15.931Z,99.90
2019-05-29T19:53:24.354Z,99.90
2019-05-29T19:58:29.794Z,99.90
2019-05-29T20:03:36.687Z,99.90
2019-05-29T20:08:42.607Z,99.90
2019-05-29T20:13:48.199Z,99.90
2019-05-29T20:18:53.809Z,99.90
2019-05-29T20:23:59.528Z,99.90
2019-05-29T20:29:05.535Z,99.90
2019-05-29T20:34:11.099Z,99.90
2019-05-29T20:39:16.907Z,99.90
2019-05-29T20:44:22.604Z,99.90
2019-05-29T20:49:28.375Z,99.90
2019-05-29T20:54:33.995Z,99.90
2019-05-29T20:59:40.575Z,99.90
2019-05-29T21:04:46.354Z,99.90
2019-05-29T21:09:52.289Z,99.90
2019-05-29T21:14:58.040Z,99.90
2019-05-29T21:20:03.883Z,99.90
2019-05-29T21:25:14.913Z,99.90
2019-05-29T21:30:22.449Z,99.90
2019-05-29T21:35:28.335Z,99.90
2019-05-29T21:40:34.059Z,99.90
2019-05-29T21:45:40.956Z,99.90
2019-05-29T21:50:47.429Z,99.90
2019-05-29T21:55:53.320Z,99.90
2019-05-29T22:00:58.965Z,99.90
2019-05-29T22:06:04.719Z,99.90
2019-05-29T22:11:10.410Z,99.90
2019-05-29T22:16:15.980Z,99.90
2019-05-29T22:21:21.687Z,99.90
2019-05-29T22:26:27.456Z,99.90
2019-05-29T22:31:33.225Z,99.90
2019-05-29T22:36:38.923Z,99.90
2019-05-29T22:41:44.538Z,99.90
2019-05-29T22:46:51.555Z,99.90
2019-05-29T22:51:57.809Z,99.90
2019-05-29T22:57:04.051Z,99.90
2019-05-29T23:02:10.164Z,99.90
2019-05-29T23:07:15.821Z,99.90
2019-05-29T23:12:21.424Z,99.90
2019-05-29T23:17:27.225Z,99.90
2019-05-29T23:22:32.831Z,99.90
2019-05-29T23:27:38.426Z,99.90
2019-05-29T23:32:44.032Z,99.90
2019-05-29T23:37:49.625Z,99.90
2019-05-29T23:42:55.428Z,99.90
2019-05-29T23:48:01.827Z,99.90
2019-05-29T23:53:07.482Z,99.90
2019-05-29T23:58:13.073Z,99.90
